Flight Track Log - Related Links

Times and Time Zones

All times are in EDT time to prevent confusion due to time zone crossing. See the DAL3676 flight status page for this flight to view local times or setup timezone preferences in your user account.

Time Position Orientation Groundspeed Altitude Reporting Facility
EDT Latitude Longitude Course Direction KTS MPH feet Rate Location/Type
Sun 04:05:24 PM 40.5314 -89.0436 312° West 195 224 6,100  Level Chicago Center
Sun 04:06:26 PM 40.5800 -89.1028 317° Northwest 226 260 8,800 2,274 Climbing Chicago Center
Sun 04:07:28 PM 40.6325 -89.1644 318° Northwest 247 284 10,800 1,452 Climbing Chicago Center
Sun 04:08:30 PM 40.6961 -89.2403 318° Northwest 296 341 11,800 1,403 Climbing Chicago Center
Sun 04:09:32 PM 40.7597 -89.3164 318° Northwest 309 356 13,700 1,887 Climbing Chicago Center
Sun 04:10:34 PM 40.8369 -89.4086 318° Northwest 310 357 15,700 1,248 Climbing Chicago Center
Sun 04:11:37 PM 40.9028 -89.4889 317° Northwest 322 371 16,300 624 Climbing Chicago Center
Sun 04:12:39 PM 40.9736 -89.5736 318° Northwest 340 391 17,000 339 Climbing Chicago Center
Sun 04:13:41 PM 41.0483 -89.6642 318° Northwest 356 410 17,000  Level Chicago Center
Sun 04:14:43 PM 41.1397 -89.7753 318° Northwest 370 426 17,000  Level Chicago Center
Sun 04:15:45 PM 41.2153 -89.8667 318° Northwest 370 426 17,000 97 Level Chicago Center
Sun 04:16:47 PM 41.2894 -89.9594 317° Northwest 370 426 17,200 919 Climbing Chicago Center
Sun 04:17:49 PM 41.3486 -90.0683 306° West 363 418 18,900 1,548 Climbing Chicago Center
Sun 04:18:51 PM 41.4053 -90.1725 306° West 356 410 20,400 1,296 Climbing Chicago Center
Sun 04:19:54 PM 41.4603 -90.2739 306° West 344 396 21,600 1,104 Climbing Chicago Center
Sun 04:20:56 PM 41.5172 -90.4036 300° West 341 392 22,700 919 Climbing Chicago Center
Sun 04:21:58 PM 41.5567 -90.5225 294° West 354 407 23,500 726 Climbing Chicago Center
Sun 04:23:00 PM 41.6125 -90.6225 307° West 349 402 24,200 629 Climbing Chicago Center
Sun 04:24:02 PM 41.6697 -90.7264 306° West 349 402 24,800 581 Climbing Chicago Center
Sun 04:25:04 PM 41.7386 -90.8533 306° West 350 403 25,400 532 Climbing Chicago Center
Sun 04:26:06 PM 41.7967 -90.9597 306° West 355 409 25,900 532 Climbing Chicago Center
Sun 04:27:08 PM 41.8553 -91.0667 306° West 356 410 26,500 774 Climbing Chicago Center
Sun 04:28:10 PM 41.9117 -91.1719 306° West 351 404 27,500 720 Climbing Chicago Center
Sun 04:29:13 PM 41.9661 -91.2747 305° West 341 392 28,000 240 Climbing Chicago Center
Sun 04:30:15 PM 42.0314 -91.3958 306° West 337 388 28,000  Level Chicago Center
Sun 04:31:17 PM 42.0844 -91.4983 305° West 337 388 28,000  Level Chicago Center
Sun 04:32:19 PM 42.1397 -91.5992 306° West 337 388 28,000  Level Chicago Center
Sun 04:33:21 PM 42.1936 -91.7019 305° West 337 388 28,000  Level Chicago Center
Sun 04:34:23 PM 42.2483 -91.8053 306° West 338 389 28,000  Level Chicago Center
Sun 04:35:25 PM 42.3028 -91.9086 305° West 337 388 28,000  Level Chicago Center
Sun 04:36:27 PM 42.3686 -92.0336 306° West 338 389 28,000  Level Chicago Center
Sun 04:37:29 PM 42.4231 -92.1378 305° West 339 390 28,000  Level Chicago Center
Sun 04:38:32 PM 42.4767 -92.2433 305° West 339 390 28,000  Level Chicago Center
Sun 04:39:34 PM 42.5308 -92.3483 305° West 339 390 28,000  Level Chicago Center
Sun 04:40:36 PM 42.5972 -92.4358 316° Northwest 337 388 28,000  Level Chicago Center
Sun 04:41:38 PM 42.6925 -92.5233 326° Northwest 345 397 28,000  Level Chicago Center
Sun 04:42:40 PM 42.7714 -92.5972 325° Northwest 344 396 28,000  Level Chicago Center
Sun 04:43:43 PM 42.8519 -92.6703 326° Northwest 345 397 28,000  Level Chicago Center
Sun 04:44:44 PM 42.9328 -92.7442 326° Northwest 348 400 28,000  Level Chicago Center
Sun 04:46:12 PM 43.0689 -92.8708 326° Northwest 368 423 28,000  Level Minneapolis Center
Sun 04:47:14 PM 43.1542 -92.9511 326° Northwest 372 428 28,000  Level Minneapolis Center
Sun 04:48:16 PM 43.2425 -93.0314 327° Northwest 378 435 28,000  Level Minneapolis Center
Sun 04:49:18 PM 43.3292 -93.1139 325° Northwest 380 437 28,000 -435 Level Minneapolis Center
Sun 04:50:20 PM 43.4383 -93.1386 351° North 396 456 27,100 -1,984 Descending Minneapolis Center
Sun 04:51:22 PM 43.5558 -93.1614 352° North 395 455 23,900 -2,784 Descending Minneapolis Center
Sun 04:52:25 PM 43.6581 -93.1822 352° North 376 433 21,300 -2,448 Descending Minneapolis Center
Sun 04:53:27 PM 43.7533 -93.2019 351° North 353 406 18,800 -2,419 Descending Minneapolis Center
Sun 04:54:29 PM 43.8658 -93.2261 351° North 344 396 16,300 -2,177 Descending Minneapolis Center
Sun 04:55:31 PM 43.9564 -93.2453 351° North 334 384 14,300 -1,935 Descending Minneapolis Center
Sun 04:56:33 PM 44.0519 -93.2383 North 342 394 12,300 -1,935 Descending Minneapolis Center
Sun 04:57:35 PM 44.1472 -93.2300 North 343 395 10,300 -1,113 Descending Minneapolis Center
Sun 04:58:37 PM 44.2325 -93.2219 North 296 341 10,000 -194 Descending Minneapolis Center
Sun 04:59:39 PM 44.3039 -93.2142 North 263 303 9,900 -624 Descending Minneapolis Center
Sun 05:00:42 PM 44.3803 -93.1953 10° North 230 265 8,700 -1,056 Descending Minneapolis Center
Sun 05:01:44 PM 44.4367 -93.1758 14° North 214 246 7,700 -823 Descending Minneapolis Center
Sun 05:02:46 PM 44.4806 -93.1314 36° Northeast 211 243 7,000 -339 Descending Minneapolis Center
Sun 05:03:48 PM 44.5261 -93.1494 344° North 171 197 7,000 -194 Level Minneapolis Center
Sun 05:04:50 PM 44.5736 -93.1611 350° North 172 198 6,600 -774 Descending Minneapolis Center
Sun 05:05:52 PM 44.6283 -93.1753 350° North 168 193 5,400 -968 Descending Minneapolis Center
Sun 05:06:54 PM 44.6714 -93.1861 350° North 162 186 4,600 -823 Descending Minneapolis Center
Sun 05:07:56 PM 44.7150 -93.1964 350° North 160 184 3,700 -774 Descending Minneapolis Center
Sun 05:08:58 PM 44.7572 -93.2083 349° North 161 185 3,000 -823 Descending Minneapolis Center
Sun 05:10:00 PM 44.8067 -93.2211 350° North 160 184 2,000 -816 Descending Minneapolis Center
Sun 05:11:03 PM 44.8422 -93.2306 349° North 136 157 1,300 -667 Descending Minneapolis Center
Sun 05:13:00 PM 44.8667 -93.2167 North  Level FlightAware Approximate
Sun 05:20:00 PM 44.8820 -93.2218 North  Level Estimated

Login

Don't have an account? Register now (free) for customized features, flight alerts, and more!